createdAt,value
2019-05-05T00:03:25.777Z,100215.00
2019-05-05T00:14:09.843Z,100227.00
2019-05-05T00:24:54.643Z,100260.00
2019-05-05T00:35:38.616Z,100259.00
2019-05-05T00:46:16.731Z,100261.00
2019-05-05T00:57:00.730Z,100282.00
2019-05-05T01:07:44.409Z,100287.00
2019-05-05T01:18:24.549Z,100297.00
2019-05-05T01:29:05.312Z,100312.00
2019-05-05T01:39:46.639Z,100335.00
2019-05-05T01:50:29.828Z,100336.00
2019-05-05T02:01:15.281Z,100359.00
2019-05-05T02:11:59.740Z,100363.00
2019-05-05T02:22:44.560Z,100370.00
2019-05-05T02:33:28.499Z,100393.00
2019-05-05T02:44:10.921Z,100413.00
2019-05-05T02:54:53.849Z,100432.00
2019-05-05T03:05:36.949Z,100446.00
2019-05-05T03:16:20.552Z,100460.00
2019-05-05T03:27:03.897Z,100494.00
2019-05-05T03:37:45.532Z,100513.00
2019-05-05T03:48:26.975Z,100571.00
2019-05-05T03:59:10.853Z,100604.00
2019-05-05T04:09:54.690Z,100621.00
2019-05-05T04:20:38.011Z,100618.00
2019-05-05T04:31:21.605Z,100600.00
2019-05-05T04:41:59.717Z,100573.00
2019-05-05T04:52:43.633Z,100532.00
2019-05-05T05:03:28.832Z,100500.00
2019-05-05T05:14:14.433Z,100462.00
2019-05-05T05:24:57.702Z,100359.00
2019-05-05T05:35:44.129Z,100341.00
2019-05-05T05:46:24.103Z,100370.00
2019-05-05T05:57:07.687Z,100344.00
2019-05-05T06:07:51.640Z,100319.00
2019-05-05T06:18:34.567Z,100291.00
2019-05-05T06:29:15.004Z,100247.00
2019-05-05T06:39:58.744Z,100168.00
2019-05-05T06:50:43.803Z,100152.00
2019-05-05T07:01:25.604Z,100165.00
2019-05-05T07:12:04.521Z,100173.00
2019-05-05T07:22:58.869Z,100125.00
2019-05-05T07:33:34.562Z,100105.00
2019-05-05T07:44:28.475Z,100104.00
2019-05-05T07:54:58.424Z,100087.00
2019-05-05T08:05:40.775Z,100024.00
2019-05-05T08:16:24.229Z,99990.00
2019-05-05T08:27:06.810Z,99998.00
2019-05-05T08:37:49.895Z,99975.00
2019-05-05T08:48:28.942Z,99940.00
2019-05-05T08:59:14.391Z,99824.00
2019-05-05T09:09:57.011Z,99822.00
2019-05-05T09:20:39.879Z,99769.00
2019-05-05T09:31:23.951Z,99696.00
2019-05-05T09:42:06.900Z,99674.00
2019-05-05T09:52:51.197Z,99633.00
2019-05-05T10:03:30.028Z,99548.00
2019-05-05T10:14:10.168Z,99480.00
2019-05-05T10:24:56.792Z,99395.00
2019-05-05T10:35:37.209Z,99240.00
2019-05-05T10:46:20.913Z,99214.00
2019-05-05T10:57:03.600Z,99409.00
2019-05-05T11:07:47.033Z,99409.00
2019-05-05T11:18:30.234Z,99387.00
2019-05-05T11:29:13.858Z,99247.00
2019-05-05T11:39:59.200Z,99129.00
2019-05-05T11:50:43.686Z,99165.00
2019-05-05T12:01:28.169Z,99058.00
2019-05-05T12:12:11.177Z,99128.00
2019-05-05T12:22:48.603Z,99036.00
2019-05-05T12:33:33.630Z,99060.00
2019-05-05T12:44:17.045Z,99016.00
2019-05-05T12:55:04.936Z,98893.00
2019-05-05T13:05:46.928Z,98894.00
2019-05-05T13:16:27.114Z,99342.00
2019-05-05T13:27:19.159Z,99335.00
2019-05-05T13:37:55.109Z,99169.00
2019-05-05T13:48:35.333Z,99150.00
2019-05-05T13:59:20.199Z,99097.00
2019-05-05T14:10:04.330Z,99014.00
2019-05-05T14:20:38.304Z,98835.00
2019-05-05T14:31:21.300Z,98711.00
2019-05-05T14:42:04.504Z,98739.00
2019-05-05T14:52:44.155Z,98711.00
2019-05-05T15:03:28.417Z,98761.00
2019-05-05T15:14:10.321Z,98815.00
2019-05-05T15:24:53.748Z,98829.00
2019-05-05T15:35:37.510Z,98761.00
2019-05-05T15:46:19.015Z,98820.00
2019-05-05T15:57:06.320Z,98831.00
2019-05-05T16:07:40.559Z,98966.00
2019-05-05T16:18:21.420Z,99014.00
2019-05-05T16:29:05.338Z,99010.00
2019-05-05T16:39:46.422Z,99037.00
2019-05-05T16:50:28.395Z,99121.00
2019-05-05T17:01:11.362Z,99067.00
2019-05-05T17:11:55.227Z,99074.00
2019-05-05T17:22:36.232Z,99162.00
2019-05-05T17:33:19.455Z,99191.00
2019-05-05T17:43:57.722Z,99200.00
2019-05-05T17:54:41.279Z,99261.00
2019-05-05T18:05:25.291Z,99307.00
2019-05-05T18:16:06.462Z,99327.00
2019-05-05T18:26:49.566Z,99357.00
2019-05-05T18:37:30.269Z,99413.00
2019-05-05T18:48:13.929Z,99464.00
2019-05-05T18:58:56.695Z,99542.00
2019-05-05T19:09:51.174Z,99615.00
2019-05-05T19:20:24.460Z,99661.00
2019-05-05T19:31:04.341Z,99702.00
2019-05-05T19:41:38.673Z,99748.00
2019-05-05T19:52:21.489Z,99778.00
2019-05-05T20:03:05.679Z,99783.00
2019-05-05T20:14:04.728Z,99803.00
2019-05-05T20:24:33.526Z,99819.00
2019-05-05T20:35:14.779Z,99843.00
2019-05-05T20:45:58.426Z,99888.00
2019-05-05T20:56:39.634Z,99884.00
2019-05-05T21:07:26.234Z,99880.00
2019-05-05T21:18:05.414Z,99917.00
2019-05-05T21:28:48.390Z,99963.00
2019-05-05T21:39:25.287Z,99966.00
2019-05-05T21:50:09.279Z,99961.00
2019-05-05T22:00:54.801Z,99954.00
2019-05-05T22:11:32.717Z,99935.00
2019-05-05T22:54:07.732Z,99923.00
2019-05-05T23:04:49.331Z,99925.00
2019-05-05T23:15:34.263Z,99955.00
2019-05-05T23:26:15.446Z,99982.00
2019-05-05T23:36:57.622Z,100027.00
2019-05-05T23:47:40.428Z,100069.00
2019-05-05T23:58:23.860Z,100095.00
